createdAt,value
2019-03-26T00:02:19.094Z,10.20
2019-03-26T00:09:06.835Z,10.67
2019-03-26T00:15:51.701Z,10.03
2019-03-26T00:22:36.716Z,6.97
2019-03-26T00:29:21.631Z,9.03
2019-03-26T00:36:06.491Z,8.90
2019-03-26T00:42:53.118Z,10.97
2019-03-26T00:49:37.978Z,9.77
2019-03-26T00:56:22.850Z,9.23
2019-03-26T01:03:09.117Z,9.83
2019-03-26T01:09:55.180Z,9.17
2019-03-26T01:16:40.181Z,11.77
2019-03-26T01:23:25.150Z,15.70
2019-03-26T01:30:11.545Z,14.17
2019-03-26T01:36:56.830Z,16.10
2019-03-26T01:43:41.763Z,12.97
2019-03-26T01:50:26.694Z,14.03
2019-03-26T01:57:11.563Z,15.13
2019-03-26T02:03:56.423Z,17.00
2019-03-26T02:10:41.293Z,17.27
2019-03-26T02:17:26.461Z,17.73
2019-03-26T02:24:11.530Z,17.70
2019-03-26T02:30:56.739Z,23.27
2019-03-26T02:37:42.068Z,20.83
2019-03-26T02:44:27.029Z,19.57
2019-03-26T02:51:11.971Z,24.57
2019-03-26T02:57:56.824Z,20.73
2019-03-26T03:04:41.681Z,21.33
2019-03-26T03:11:26.539Z,20.50
2019-03-26T03:18:12.163Z,19.03
2019-03-26T03:24:57.426Z,18.60
2019-03-26T03:31:42.421Z,18.50
2019-03-26T03:38:27.271Z,21.00
2019-03-26T03:45:14.336Z,19.50
2019-03-26T03:52:00.916Z,17.03
2019-03-26T03:58:47.603Z,21.37
2019-03-26T04:05:32.568Z,17.73
2019-03-26T04:12:17.435Z,20.27
2019-03-26T04:19:02.288Z,16.77
2019-03-26T04:25:47.336Z,17.67
2019-03-26T04:32:32.407Z,19.50
2019-03-26T04:39:17.360Z,18.90
2019-03-26T04:46:02.568Z,18.20
2019-03-26T04:52:47.443Z,20.15
2019-03-26T04:59:32.302Z,21.73
2019-03-26T05:06:17.247Z,23.60
2019-03-26T05:13:02.183Z,18.10
2019-03-26T05:19:47.039Z,22.97
2019-03-26T05:26:31.903Z,22.97
2019-03-26T05:33:16.780Z,25.17
2019-03-26T05:40:01.676Z,21.53
2019-03-26T05:46:46.771Z,21.63
2019-03-26T05:53:34.495Z,20.13
2019-03-26T06:00:21.083Z,18.00
2019-03-26T06:07:05.949Z,19.77
2019-03-26T06:13:50.806Z,18.77
2019-03-26T06:20:35.683Z,17.70
2019-03-26T06:27:20.619Z,17.57
2019-03-26T06:34:05.482Z,15.57
2019-03-26T06:40:50.712Z,25.20
2019-03-26T06:47:35.576Z,18.97
2019-03-26T06:54:20.444Z,17.77
2019-03-26T07:01:05.623Z,16.30
2019-03-26T07:07:50.514Z,24.57
2019-03-26T07:14:35.548Z,20.17
2019-03-26T07:21:20.930Z,18.43
2019-03-26T07:28:05.915Z,19.87
2019-03-26T07:34:50.784Z,18.47
2019-03-26T07:41:35.648Z,19.97
2019-03-26T07:48:20.519Z,21.20
2019-03-26T07:55:07.973Z,19.17
2019-03-26T08:01:53.810Z,21.70
2019-03-26T08:08:40.727Z,19.33
2019-03-26T08:15:25.491Z,20.30
2019-03-26T08:22:10.359Z,15.53
2019-03-26T08:28:55.223Z,18.37
2019-03-26T08:35:40.085Z,13.90
2019-03-26T08:42:24.939Z,14.23
2019-03-26T08:49:09.921Z,15.87
2019-03-26T08:55:54.855Z,14.23
2019-03-26T09:02:39.782Z,10.07
2019-03-26T09:09:24.642Z,12.40
2019-03-26T09:16:09.503Z,10.03
2019-03-26T09:22:54.443Z,10.43
2019-03-26T09:29:39.307Z,10.13
2019-03-26T09:36:25.144Z,10.63
2019-03-26T09:43:10.082Z,14.28
2019-03-26T09:49:54.934Z,10.15
2019-03-26T09:56:39.843Z,13.70
2019-03-26T10:03:24.724Z,13.03
2019-03-26T10:10:11.878Z,12.80
2019-03-26T10:16:56.766Z,13.20
2019-03-26T10:23:41.691Z,12.20
2019-03-26T10:30:38.911Z,11.50
2019-03-26T10:37:23.779Z,10.73
2019-03-26T10:44:08.719Z,11.23
2019-03-26T10:50:53.582Z,13.47
2019-03-26T10:57:38.708Z,16.00
2019-03-26T11:04:24.095Z,8.57
2019-03-26T11:11:09.090Z,8.90
2019-03-26T11:17:54.016Z,9.30
2019-03-26T11:24:38.880Z,9.63
2019-03-26T11:31:23.738Z,9.60
2019-03-26T11:38:08.669Z,8.03
2019-03-26T11:44:53.598Z,7.20
2019-03-26T11:51:38.459Z,7.03
2019-03-26T11:58:30.306Z,7.37
2019-03-26T12:05:10.300Z,6.43
2019-03-26T12:11:55.222Z,8.37
2019-03-26T12:18:40.096Z,5.93
2019-03-26T12:25:25.031Z,4.30
2019-03-26T12:32:09.963Z,5.63
2019-03-26T12:38:55.775Z,6.93
2019-03-26T12:45:40.849Z,6.00
2019-03-26T12:52:25.855Z,6.83
2019-03-26T12:59:10.729Z,7.87
2019-03-26T13:05:55.771Z,8.50
2019-03-26T13:12:40.811Z,5.30
2019-03-26T13:19:25.671Z,5.85
2019-03-26T13:26:10.737Z,6.20
2019-03-26T13:32:55.891Z,6.87
2019-03-26T13:39:41.185Z,5.10
2019-03-26T13:46:26.044Z,7.90
2019-03-26T13:53:11.046Z,5.40
2019-03-26T13:59:56.455Z,5.17
2019-03-26T14:06:41.327Z,6.13
2019-03-26T14:13:26.276Z,7.60
2019-03-26T14:20:12.046Z,7.50
2019-03-26T14:26:57.104Z,6.93
2019-03-26T14:33:42.047Z,5.97
2019-03-26T14:40:27.015Z,7.40
2019-03-26T14:47:12.052Z,8.40
2019-03-26T14:53:56.910Z,9.70
2019-03-26T15:00:41.908Z,8.73
2019-03-26T15:07:27.214Z,7.97
2019-03-26T15:14:12.153Z,5.77
2019-03-26T15:20:57.195Z,7.63
2019-03-26T15:27:42.187Z,9.23
2019-03-26T15:34:36.016Z,8.67
2019-03-26T15:41:21.424Z,9.87
2019-03-26T15:48:00.543Z,8.10
2019-03-26T15:54:45.603Z,5.97
2019-03-26T16:01:31.631Z,13.80
2019-03-26T16:08:16.606Z,11.43
2019-03-26T16:15:01.770Z,19.03
2019-03-26T16:21:48.016Z,20.23
2019-03-26T16:28:33.217Z,12.50
2019-03-26T16:35:18.103Z,22.60
2019-03-26T16:42:03.364Z,22.60
2019-03-26T16:48:48.989Z,14.50
2019-03-26T16:55:34.357Z,15.93
2019-03-26T17:02:20.127Z,15.47
2019-03-26T17:09:07.565Z,13.87
2019-03-26T17:15:52.599Z,15.67
2019-03-26T17:22:37.461Z,14.50
2019-03-26T17:29:22.432Z,15.47
2019-03-26T17:36:07.476Z,14.10
2019-03-26T17:42:53.764Z,9.88
2019-03-26T17:49:38.770Z,10.60
2019-03-26T17:56:24.327Z,10.17
2019-03-26T18:03:09.323Z,8.73
2019-03-26T18:09:54.246Z,14.53
2019-03-26T18:16:40.248Z,11.90
2019-03-26T18:23:25.169Z,15.50
2019-03-26T18:30:10.367Z,14.13
2019-03-26T18:36:55.361Z,13.53
2019-03-26T18:43:40.451Z,14.43
2019-03-26T18:50:25.353Z,18.27
2019-03-26T18:57:10.302Z,12.60
2019-03-26T19:03:55.218Z,12.20
2019-03-26T19:10:40.228Z,11.10
2019-03-26T19:17:25.311Z,15.20
2019-03-26T19:24:10.493Z,13.60
2019-03-26T19:30:55.428Z,17.83
2019-03-26T19:37:40.703Z,12.83
2019-03-26T19:44:25.729Z,21.17
2019-03-26T19:51:10.651Z,12.27
2019-03-26T19:57:55.511Z,12.60
2019-03-26T20:04:40.376Z,19.90
2019-03-26T20:11:25.538Z,14.67
2019-03-26T20:18:10.476Z,18.83
2019-03-26T20:24:55.348Z,15.90
2019-03-26T20:31:40.518Z,17.43
2019-03-26T20:38:25.375Z,20.17
2019-03-26T20:45:14.155Z,17.50
2019-03-26T20:51:59.426Z,21.43
2019-03-26T20:58:45.116Z,19.53
2019-03-26T21:05:30.115Z,14.53
2019-03-26T21:12:15.095Z,15.77
2019-03-26T21:18:59.960Z,16.33
2019-03-26T21:25:45.708Z,20.77
2019-03-26T21:32:30.806Z,15.93
2019-03-26T21:39:15.672Z,16.60
2019-03-26T21:46:00.593Z,17.63
2019-03-26T21:52:45.598Z,13.37
2019-03-26T21:59:30.507Z,18.17
2019-03-26T22:06:15.479Z,18.53
2019-03-26T22:13:00.983Z,16.57
2019-03-26T22:19:45.898Z,18.70
2019-03-26T22:26:30.766Z,18.23
2019-03-26T22:33:15.621Z,18.90
2019-03-26T22:40:00.479Z,16.30
2019-03-26T22:46:45.407Z,19.47
2019-03-26T22:53:31.588Z,19.33
2019-03-26T23:00:19.832Z,16.97
2019-03-26T23:07:06.431Z,19.45
2019-03-26T23:13:52.082Z,19.33
2019-03-26T23:20:37.171Z,24.10
2019-03-26T23:27:22.026Z,16.57
2019-03-26T23:34:06.977Z,17.37
2019-03-26T23:40:51.907Z,21.23
2019-03-26T23:47:36.913Z,17.10
2019-03-26T23:54:21.838Z,17.23
